sensor_id;sensor_type;location;lat;lon;timestamp;P1;durP1;ratioP1;P2;durP2;ratioP2
48329;SDS011;34138;51.262;6.818;2024-03-25T00:00:15;26.02;;;5.25;;
48329;SDS011;34138;51.262;6.818;2024-03-25T00:02:41;30.67;;;6.00;;
48329;SDS011;34138;51.262;6.818;2024-03-25T00:05:07;31.27;;;5.65;;
48329;SDS011;34138;51.262;6.818;2024-03-25T00:07:34;29.10;;;4.80;;
48329;SDS011;34138;51.262;6.818;2024-03-25T00:09:59;25.65;;;5.03;;
48329;SDS011;34138;51.262;6.818;2024-03-25T00:12:25;28.42;;;5.35;;
48329;SDS011;34138;51.262;6.818;2024-03-25T00:14:50;26.00;;;5.45;;
48329;SDS011;34138;51.262;6.818;2024-03-25T00:17:15;28.50;;;4.72;;
48329;SDS011;34138;51.262;6.818;2024-03-25T00:19:41;24.73;;;5.00;;
48329;SDS011;34138;51.262;6.818;2024-03-25T00:22:07;27.83;;;4.93;;
48329;SDS011;34138;51.262;6.818;2024-03-25T00:24:32;19.92;;;4.25;;
48329;SDS011;34138;51.262;6.818;2024-03-25T00:26:57;28.45;;;5.88;;
48329;SDS011;34138;51.262;6.818;2024-03-25T00:29:22;24.80;;;4.78;;
48329;SDS011;34138;51.262;6.818;2024-03-25T00:31:48;29.10;;;5.28;;
48329;SDS011;34138;51.262;6.818;2024-03-25T00:34:13;26.00;;;4.85;;
48329;SDS011;34138;51.262;6.818;2024-03-25T00:36:38;26.00;;;5.15;;
48329;SDS011;34138;51.262;6.818;2024-03-25T00:39:03;19.45;;;4.88;;
48329;SDS011;34138;51.262;6.818;2024-03-25T00:41:29;29.08;;;5.35;;
48329;SDS011;34138;51.262;6.818;2024-03-25T00:43:54;23.85;;;4.55;;
48329;SDS011;34138;51.262;6.818;2024-03-25T00:46:19;26.55;;;5.00;;
48329;SDS011;34138;51.262;6.818;2024-03-25T00:48:44;27.30;;;5.65;;
48329;SDS011;34138;51.262;6.818;2024-03-25T00:51:09;36.17;;;6.30;;
48329;SDS011;34138;51.262;6.818;2024-03-25T00:53:35;23.50;;;5.20;;
48329;SDS011;34138;51.262;6.818;2024-03-25T00:56:00;30.17;;;5.50;;
48329;SDS011;34138;51.262;6.818;2024-03-25T00:58:25;27.08;;;5.78;;
48329;SDS011;34138;51.262;6.818;2024-03-25T01:00:50;24.23;;;5.30;;
48329;SDS011;34138;51.262;6.818;2024-03-25T01:03:15;28.83;;;5.82;;
48329;SDS011;34138;51.262;6.818;2024-03-25T01:05:41;27.75;;;5.63;;
48329;SDS011;34138;51.262;6.818;2024-03-25T01:08:06;27.33;;;5.30;;
48329;SDS011;34138;51.262;6.818;2024-03-25T01:10:35;31.45;;;6.50;;
48329;SDS011;34138;51.262;6.818;2024-03-25T01:13:01;29.80;;;5.97;;
48329;SDS011;34138;51.262;6.818;2024-03-25T01:15:26;25.50;;;5.68;;
48329;SDS011;34138;51.262;6.818;2024-03-25T01:17:51;20.98;;;5.25;;
48329;SDS011;34138;51.262;6.818;2024-03-25T01:20:16;25.10;;;5.57;;
48329;SDS011;34138;51.262;6.818;2024-03-25T01:22:41;28.45;;;5.45;;
48329;SDS011;34138;51.262;6.818;2024-03-25T01:25:07;33.13;;;6.00;;
48329;SDS011;34138;51.262;6.818;2024-03-25T01:27:32;30.15;;;6.13;;
48329;SDS011;34138;51.262;6.818;2024-03-25T01:29:57;28.92;;;5.50;;
48329;SDS011;34138;51.262;6.818;2024-03-25T01:32:23;26.77;;;5.63;;
48329;SDS011;34138;51.262;6.818;2024-03-25T01:34:48;35.08;;;6.68;;
48329;SDS011;34138;51.262;6.818;2024-03-25T01:37:13;28.73;;;5.30;;
48329;SDS011;34138;51.262;6.818;2024-03-25T01:39:38;26.75;;;6.03;;
48329;SDS011;34138;51.262;6.818;2024-03-25T01:42:04;23.85;;;5.65;;
48329;SDS011;34138;51.262;6.818;2024-03-25T01:44:29;25.70;;;6.72;;
48329;SDS011;34138;51.262;6.818;2024-03-25T01:46:55;28.88;;;5.70;;
48329;SDS011;34138;51.262;6.818;2024-03-25T01:49:22;25.33;;;5.95;;
48329;SDS011;34138;51.262;6.818;2024-03-25T01:51:48;27.63;;;5.00;;
48329;SDS011;34138;51.262;6.818;2024-03-25T01:54:14;27.50;;;6.03;;
48329;SDS011;34138;51.262;6.818;2024-03-25T01:56:43;23.95;;;5.22;;
48329;SDS011;34138;51.262;6.818;2024-03-25T01:59:09;26.23;;;5.40;;
48329;SDS011;34138;51.262;6.818;2024-03-25T02:01:36;26.02;;;5.55;;
48329;SDS011;34138;51.262;6.818;2024-03-25T02:04:03;27.17;;;5.85;;
48329;SDS011;34138;51.262;6.818;2024-03-25T02:06:28;32.42;;;6.18;;
48329;SDS011;34138;51.262;6.818;2024-03-25T02:08:55;25.15;;;6.15;;
48329;SDS011;34138;51.262;6.818;2024-03-25T02:11:21;30.63;;;6.32;;
48329;SDS011;34138;51.262;6.818;2024-03-25T02:13:50;26.23;;;5.80;;
48329;SDS011;34138;51.262;6.818;2024-03-25T02:16:17;24.17;;;5.97;;
48329;SDS011;34138;51.262;6.818;2024-03-25T02:18:43;25.55;;;6.00;;
48329;SDS011;34138;51.262;6.818;2024-03-25T02:21:10;27.48;;;6.50;;
48329;SDS011;34138;51.262;6.818;2024-03-25T02:23:37;23.88;;;5.38;;
48329;SDS011;34138;51.262;6.818;2024-03-25T02:26:05;29.45;;;6.82;;
48329;SDS011;34138;51.262;6.818;2024-03-25T02:28:30;29.88;;;6.28;;
48329;SDS011;34138;51.262;6.818;2024-03-25T02:30:56;25.43;;;5.83;;
48329;SDS011;34138;51.262;6.818;2024-03-25T02:33:23;25.00;;;6.03;;
48329;SDS011;34138;51.262;6.818;2024-03-25T02:35:49;31.13;;;6.25;;
48329;SDS011;34138;51.262;6.818;2024-03-25T02:38:16;22.15;;;6.18;;
48329;SDS011;34138;51.262;6.818;2024-03-25T02:40:44;19.83;;;5.45;;
48329;SDS011;34138;51.262;6.818;2024-03-25T02:43:11;21.60;;;5.35;;
48329;SDS011;34138;51.262;6.818;2024-03-25T02:45:37;22.02;;;5.88;;
48329;SDS011;34138;51.262;6.818;2024-03-25T02:48:04;28.67;;;6.63;;
48329;SDS011;34138;51.262;6.818;2024-03-25T02:50:31;30.27;;;6.70;;
48329;SDS011;34138;51.262;6.818;2024-03-25T02:52:57;24.15;;;5.65;;
48329;SDS011;34138;51.262;6.818;2024-03-25T02:55:24;27.70;;;6.63;;
48329;SDS011;34138;51.262;6.818;2024-03-25T02:57:50;24.00;;;5.97;;
48329;SDS011;34138;51.262;6.818;2024-03-25T03:02:48;28.10;;;6.35;;
48329;SDS011;34138;51.262;6.818;2024-03-25T03:05:15;23.88;;;6.45;;
48329;SDS011;34138;51.262;6.818;2024-03-25T03:07:42;33.55;;;6.15;;
48329;SDS011;34138;51.262;6.818;2024-03-25T03:10:09;27.63;;;6.13;;
48329;SDS011;34138;51.262;6.818;2024-03-25T03:12:35;26.17;;;6.20;;
48329;SDS011;34138;51.262;6.818;2024-03-25T03:15:01;26.60;;;6.10;;
48329;SDS011;34138;51.262;6.818;2024-03-25T03:17:28;31.27;;;6.17;;
48329;SDS011;34138;51.262;6.818;2024-03-25T03:19:54;27.45;;;5.53;;
48329;SDS011;34138;51.262;6.818;2024-03-25T03:22:21;25.17;;;5.45;;
48329;SDS011;34138;51.262;6.818;2024-03-25T03:24:47;30.10;;;5.75;;
48329;SDS011;34138;51.262;6.818;2024-03-25T03:27:13;27.73;;;6.43;;
48329;SDS011;34138;51.262;6.818;2024-03-25T03:29:39;24.97;;;5.17;;
48329;SDS011;34138;51.262;6.818;2024-03-25T03:32:06;23.33;;;5.70;;
48329;SDS011;34138;51.262;6.818;2024-03-25T03:34:33;26.60;;;6.17;;
48329;SDS011;34138;51.262;6.818;2024-03-25T03:36:59;32.38;;;6.25;;
48329;SDS011;34138;51.262;6.818;2024-03-25T03:39:26;31.20;;;6.45;;
48329;SDS011;34138;51.262;6.818;2024-03-25T03:41:52;28.70;;;5.25;;
48329;SDS011;34138;51.262;6.818;2024-03-25T03:44:19;28.15;;;5.90;;
48329;SDS011;34138;51.262;6.818;2024-03-25T03:46:47;27.17;;;5.80;;
48329;SDS011;34138;51.262;6.818;2024-03-25T03:49:13;23.88;;;5.85;;
48329;SDS011;34138;51.262;6.818;2024-03-25T03:51:39;24.97;;;5.47;;
48329;SDS011;34138;51.262;6.818;2024-03-25T03:54:06;22.20;;;5.73;;
48329;SDS011;34138;51.262;6.818;2024-03-25T03:56:32;35.60;;;6.47;;
48329;SDS011;34138;51.262;6.818;2024-03-25T03:58:58;31.08;;;6.20;;
48329;SDS011;34138;51.262;6.818;2024-03-25T04:01:25;26.17;;;5.72;;
48329;SDS011;34138;51.262;6.818;2024-03-25T04:03:51;27.58;;;5.80;;
48329;SDS011;34138;51.262;6.818;2024-03-25T04:06:18;22.00;;;5.78;;
48329;SDS011;34138;51.262;6.818;2024-03-25T04:08:44;27.23;;;5.80;;
48329;SDS011;34138;51.262;6.818;2024-03-25T04:11:11;30.60;;;5.73;;
48329;SDS011;34138;51.262;6.818;2024-03-25T04:13:37;22.58;;;5.50;;
48329;SDS011;34138;51.262;6.818;2024-03-25T04:16:04;22.33;;;5.75;;
48329;SDS011;34138;51.262;6.818;2024-03-25T04:18:32;30.05;;;5.93;;
48329;SDS011;34138;51.262;6.818;2024-03-25T04:20:58;27.40;;;6.18;;
48329;SDS011;34138;51.262;6.818;2024-03-25T04:23:25;23.77;;;5.78;;
48329;SDS011;34138;51.262;6.818;2024-03-25T04:25:52;32.03;;;6.55;;
48329;SDS011;34138;51.262;6.818;2024-03-25T04:28:19;27.05;;;6.07;;
48329;SDS011;34138;51.262;6.818;2024-03-25T04:30:55;26.55;;;5.95;;
48329;SDS011;34138;51.262;6.818;2024-03-25T04:33:21;25.98;;;6.00;;
48329;SDS011;34138;51.262;6.818;2024-03-25T04:35:47;30.40;;;5.93;;
48329;SDS011;34138;51.262;6.818;2024-03-25T04:38:16;27.75;;;6.25;;
48329;SDS011;34138;51.262;6.818;2024-03-25T04:40:43;28.05;;;5.95;;
48329;SDS011;34138;51.262;6.818;2024-03-25T04:43:10;22.63;;;5.38;;
48329;SDS011;34138;51.262;6.818;2024-03-25T04:45:37;23.13;;;5.38;;
48329;SDS011;34138;51.262;6.818;2024-03-25T04:48:03;25.20;;;5.35;;
48329;SDS011;34138;51.262;6.818;2024-03-25T04:50:30;23.42;;;5.43;;
48329;SDS011;34138;51.262;6.818;2024-03-25T04:52:55;26.42;;;5.97;;
48329;SDS011;34138;51.262;6.818;2024-03-25T04:55:22;28.58;;;6.45;;
48329;SDS011;34138;51.262;6.818;2024-03-25T04:57:48;23.38;;;5.38;;
48329;SDS011;34138;51.262;6.818;2024-03-25T05:00:15;24.60;;;6.00;;
48329;SDS011;34138;51.262;6.818;2024-03-25T05:02:41;34.85;;;7.20;;
48329;SDS011;34138;51.262;6.818;2024-03-25T05:05:07;26.50;;;6.85;;
48329;SDS011;34138;51.262;6.818;2024-03-25T05:07:34;28.65;;;6.55;;
48329;SDS011;34138;51.262;6.818;2024-03-25T05:10:01;24.88;;;5.85;;
48329;SDS011;34138;51.262;6.818;2024-03-25T05:12:27;22.83;;;6.32;;
48329;SDS011;34138;51.262;6.818;2024-03-25T05:14:56;31.88;;;6.43;;
48329;SDS011;34138;51.262;6.818;2024-03-25T05:17:23;29.20;;;6.00;;
48329;SDS011;34138;51.262;6.818;2024-03-25T05:19:50;28.35;;;5.68;;
48329;SDS011;34138;51.262;6.818;2024-03-25T05:22:17;32.08;;;6.88;;
48329;SDS011;34138;51.262;6.818;2024-03-25T05:24:43;31.77;;;6.93;;
48329;SDS011;34138;51.262;6.818;2024-03-25T05:27:09;26.33;;;6.05;;
48329;SDS011;34138;51.262;6.818;2024-03-25T05:29:36;29.48;;;6.43;;
48329;SDS011;34138;51.262;6.818;2024-03-25T05:32:01;24.33;;;6.03;;
48329;SDS011;34138;51.262;6.818;2024-03-25T05:34:28;27.77;;;5.82;;
48329;SDS011;34138;51.262;6.818;2024-03-25T05:36:55;29.08;;;6.38;;
48329;SDS011;34138;51.262;6.818;2024-03-25T05:39:22;24.92;;;6.60;;
48329;SDS011;34138;51.262;6.818;2024-03-25T05:41:48;30.23;;;6.85;;
48329;SDS011;34138;51.262;6.818;2024-03-25T05:44:14;29.02;;;6.53;;
48329;SDS011;34138;51.262;6.818;2024-03-25T05:46:41;23.88;;;6.07;;
48329;SDS011;34138;51.262;6.818;2024-03-25T05:49:07;29.30;;;7.15;;
48329;SDS011;34138;51.262;6.818;2024-03-25T05:51:34;27.17;;;6.45;;
48329;SDS011;34138;51.262;6.818;2024-03-25T05:54:01;24.48;;;6.63;;
48329;SDS011;34138;51.262;6.818;2024-03-25T05:56:27;28.95;;;6.18;;
48329;SDS011;34138;51.262;6.818;2024-03-25T05:58:59;31.08;;;6.90;;
48329;SDS011;34138;51.262;6.818;2024-03-25T06:01:24;26.63;;;6.55;;
48329;SDS011;34138;51.262;6.818;2024-03-25T06:03:51;23.92;;;6.63;;
48329;SDS011;34138;51.262;6.818;2024-03-25T06:06:17;28.42;;;6.07;;
48329;SDS011;34138;51.262;6.818;2024-03-25T06:08:44;28.27;;;6.70;;
48329;SDS011;34138;51.262;6.818;2024-03-25T06:11:09;27.83;;;6.88;;
48329;SDS011;34138;51.262;6.818;2024-03-25T06:13:36;25.58;;;6.65;;
48329;SDS011;34138;51.262;6.818;2024-03-25T06:16:02;28.67;;;6.82;;
48329;SDS011;34138;51.262;6.818;2024-03-25T06:18:29;25.75;;;7.03;;
48329;SDS011;34138;51.262;6.818;2024-03-25T06:20:55;25.50;;;6.70;;
48329;SDS011;34138;51.262;6.818;2024-03-25T06:23:25;25.83;;;5.57;;
48329;SDS011;34138;51.262;6.818;2024-03-25T06:25:52;29.05;;;7.45;;
48329;SDS011;34138;51.262;6.818;2024-03-25T06:28:20;23.67;;;6.72;;
48329;SDS011;34138;51.262;6.818;2024-03-25T06:30:48;27.60;;;6.88;;
48329;SDS011;34138;51.262;6.818;2024-03-25T06:33:33;29.90;;;7.68;;
48329;SDS011;34138;51.262;6.818;2024-03-25T06:36:19;32.45;;;7.47;;
48329;SDS011;34138;51.262;6.818;2024-03-25T06:38:44;19.00;;;6.60;;
48329;SDS011;34138;51.262;6.818;2024-03-25T06:41:11;33.30;;;7.60;;
48329;SDS011;34138;51.262;6.818;2024-03-25T06:43:38;25.05;;;7.90;;
48329;SDS011;34138;51.262;6.818;2024-03-25T06:46:04;32.25;;;7.65;;
48329;SDS011;34138;51.262;6.818;2024-03-25T06:48:31;23.50;;;7.18;;
48329;SDS011;34138;51.262;6.818;2024-03-25T06:50:58;28.80;;;7.20;;
48329;SDS011;34138;51.262;6.818;2024-03-25T06:53:24;29.27;;;8.07;;
48329;SDS011;34138;51.262;6.818;2024-03-25T06:55:58;24.67;;;6.65;;
48329;SDS011;34138;51.262;6.818;2024-03-25T06:58:30;32.58;;;8.00;;
48329;SDS011;34138;51.262;6.818;2024-03-25T07:00:56;21.35;;;6.65;;
48329;SDS011;34138;51.262;6.818;2024-03-25T07:03:23;27.27;;;6.72;;
48329;SDS011;34138;51.262;6.818;2024-03-25T07:05:50;26.70;;;8.93;;
48329;SDS011;34138;51.262;6.818;2024-03-25T07:08:21;27.48;;;7.63;;
48329;SDS011;34138;51.262;6.818;2024-03-25T07:10:47;28.88;;;7.93;;
48329;SDS011;34138;51.262;6.818;2024-03-25T07:13:14;25.33;;;7.25;;
48329;SDS011;34138;51.262;6.818;2024-03-25T07:15:39;24.23;;;7.30;;
48329;SDS011;34138;51.262;6.818;2024-03-25T07:18:06;23.77;;;6.93;;
48329;SDS011;34138;51.262;6.818;2024-03-25T07:20:33;26.42;;;7.70;;
48329;SDS011;34138;51.262;6.818;2024-03-25T07:22:59;25.98;;;8.07;;
48329;SDS011;34138;51.262;6.818;2024-03-25T07:25:26;27.23;;;8.10;;
48329;SDS011;34138;51.262;6.818;2024-03-25T07:27:52;25.02;;;7.35;;
48329;SDS011;34138;51.262;6.818;2024-03-25T07:30:19;34.47;;;8.70;;
48329;SDS011;34138;51.262;6.818;2024-03-25T07:32:46;23.73;;;7.55;;
48329;SDS011;34138;51.262;6.818;2024-03-25T07:35:13;27.58;;;7.97;;
48329;SDS011;34138;51.262;6.818;2024-03-25T07:37:39;23.48;;;7.95;;
48329;SDS011;34138;51.262;6.818;2024-03-25T07:40:06;30.50;;;7.75;;
48329;SDS011;34138;51.262;6.818;2024-03-25T07:42:32;28.98;;;10.13;;
48329;SDS011;34138;51.262;6.818;2024-03-25T07:44:59;24.10;;;7.53;;
48329;SDS011;34138;51.262;6.818;2024-03-25T07:47:26;31.17;;;8.68;;
48329;SDS011;34138;51.262;6.818;2024-03-25T07:49:52;22.05;;;6.75;;
48329;SDS011;34138;51.262;6.818;2024-03-25T07:52:19;22.50;;;7.32;;
48329;SDS011;34138;51.262;6.818;2024-03-25T07:54:46;30.95;;;7.97;;
48329;SDS011;34138;51.262;6.818;2024-03-25T07:57:12;20.30;;;6.10;;
48329;SDS011;34138;51.262;6.818;2024-03-25T07:59:39;24.80;;;6.13;;
48329;SDS011;34138;51.262;6.818;2024-03-25T08:02:05;26.63;;;7.53;;
48329;SDS011;34138;51.262;6.818;2024-03-25T08:04:31;33.10;;;7.45;;
48329;SDS011;34138;51.262;6.818;2024-03-25T08:06:58;25.25;;;7.88;;
48329;SDS011;34138;51.262;6.818;2024-03-25T08:09:24;27.55;;;7.22;;
48329;SDS011;34138;51.262;6.818;2024-03-25T08:11:51;21.90;;;6.85;;
48329;SDS011;34138;51.262;6.818;2024-03-25T08:14:18;22.33;;;6.43;;
48329;SDS011;34138;51.262;6.818;2024-03-25T08:16:43;28.05;;;6.97;;
48329;SDS011;34138;51.262;6.818;2024-03-25T08:19:10;20.35;;;6.85;;
48329;SDS011;34138;51.262;6.818;2024-03-25T08:21:36;35.45;;;8.45;;
48329;SDS011;34138;51.262;6.818;2024-03-25T08:24:03;22.10;;;6.32;;
48329;SDS011;34138;51.262;6.818;2024-03-25T08:26:28;28.88;;;6.38;;
48329;SDS011;34138;51.262;6.818;2024-03-25T08:28:55;27.38;;;6.22;;
48329;SDS011;34138;51.262;6.818;2024-03-25T08:31:21;23.90;;;6.80;;
48329;SDS011;34138;51.262;6.818;2024-03-25T08:33:48;23.27;;;6.18;;
48329;SDS011;34138;51.262;6.818;2024-03-25T08:36:14;32.35;;;6.30;;
48329;SDS011;34138;51.262;6.818;2024-03-25T08:38:41;24.02;;;5.25;;
48329;SDS011;34138;51.262;6.818;2024-03-25T08:41:07;24.00;;;5.95;;
48329;SDS011;34138;51.262;6.818;2024-03-25T08:43:33;21.95;;;5.65;;
48329;SDS011;34138;51.262;6.818;2024-03-25T08:46:00;17.50;;;5.43;;
48329;SDS011;34138;51.262;6.818;2024-03-25T08:48:27;23.98;;;5.43;;
48329;SDS011;34138;51.262;6.818;2024-03-25T08:50:54;25.85;;;6.28;;
48329;SDS011;34138;51.262;6.818;2024-03-25T08:53:20;24.27;;;5.95;;
48329;SDS011;34138;51.262;6.818;2024-03-25T08:55:46;20.15;;;5.20;;
48329;SDS011;34138;51.262;6.818;2024-03-25T08:58:13;25.80;;;5.80;;
48329;SDS011;34138;51.262;6.818;2024-03-25T09:00:39;21.25;;;5.10;;
48329;SDS011;34138;51.262;6.818;2024-03-25T09:03:05;18.42;;;5.07;;
48329;SDS011;34138;51.262;6.818;2024-03-25T09:05:31;25.73;;;5.47;;
48329;SDS011;34138;51.262;6.818;2024-03-25T09:07:57;22.73;;;4.65;;
48329;SDS011;34138;51.262;6.818;2024-03-25T09:10:25;19.00;;;4.38;;
48329;SDS011;34138;51.262;6.818;2024-03-25T09:13:10;17.60;;;3.95;;
48329;SDS011;34138;51.262;6.818;2024-03-25T09:15:37;20.35;;;4.32;;
48329;SDS011;34138;51.262;6.818;2024-03-25T09:18:03;18.63;;;4.38;;
48329;SDS011;34138;51.262;6.818;2024-03-25T09:20:30;19.42;;;3.42;;
48329;SDS011;34138;51.262;6.818;2024-03-25T09:22:56;16.92;;;3.80;;
48329;SDS011;34138;51.262;6.818;2024-03-25T09:25:23;20.02;;;3.78;;
48329;SDS011;34138;51.262;6.818;2024-03-25T09:27:49;12.05;;;2.97;;
48329;SDS011;34138;51.262;6.818;2024-03-25T09:30:16;15.82;;;3.55;;
48329;SDS011;34138;51.262;6.818;2024-03-25T09:32:45;17.02;;;3.72;;
48329;SDS011;34138;51.262;6.818;2024-03-25T09:35:12;16.98;;;3.90;;
48329;SDS011;34138;51.262;6.818;2024-03-25T09:37:39;16.65;;;4.05;;
48329;SDS011;34138;51.262;6.818;2024-03-25T09:40:05;18.50;;;4.15;;
48329;SDS011;34138;51.262;6.818;2024-03-25T09:42:52;20.10;;;4.20;;
48329;SDS011;34138;51.262;6.818;2024-03-25T09:45:24;21.50;;;6.13;;
48329;SDS011;34138;51.262;6.818;2024-03-25T09:47:51;15.55;;;3.72;;
48329;SDS011;34138;51.262;6.818;2024-03-25T09:50:17;21.83;;;5.28;;
48329;SDS011;34138;51.262;6.818;2024-03-25T09:52:48;21.33;;;6.20;;
48329;SDS011;34138;51.262;6.818;2024-03-25T09:55:15;13.45;;;3.58;;
48329;SDS011;34138;51.262;6.818;2024-03-25T09:57:44;17.92;;;4.00;;
48329;SDS011;34138;51.262;6.818;2024-03-25T10:00:11;14.13;;;3.75;;
48329;SDS011;34138;51.262;6.818;2024-03-25T10:02:37;14.32;;;3.53;;
48329;SDS011;34138;51.262;6.818;2024-03-25T10:05:03;15.32;;;3.85;;
48329;SDS011;34138;51.262;6.818;2024-03-25T10:07:29;21.73;;;4.45;;
48329;SDS011;34138;51.262;6.818;2024-03-25T10:09:54;13.23;;;3.78;;
48329;SDS011;34138;51.262;6.818;2024-03-25T10:12:21;16.83;;;4.93;;
48329;SDS011;34138;51.262;6.818;2024-03-25T10:14:46;14.20;;;5.10;;
48329;SDS011;34138;51.262;6.818;2024-03-25T10:17:13;16.85;;;4.53;;
48329;SDS011;34138;51.262;6.818;2024-03-25T10:19:38;16.17;;;3.70;;
48329;SDS011;34138;51.262;6.818;2024-03-25T10:22:07;16.85;;;4.25;;
48329;SDS011;34138;51.262;6.818;2024-03-25T10:24:46;18.63;;;4.45;;
48329;SDS011;34138;51.262;6.818;2024-03-25T10:27:22;16.27;;;4.32;;
48329;SDS011;34138;51.262;6.818;2024-03-25T10:29:52;15.85;;;3.75;;
48329;SDS011;34138;51.262;6.818;2024-03-25T10:32:19;15.57;;;4.13;;
48329;SDS011;34138;51.262;6.818;2024-03-25T10:34:45;17.17;;;4.70;;
48329;SDS011;34138;51.262;6.818;2024-03-25T10:37:12;16.95;;;4.47;;
48329;SDS011;34138;51.262;6.818;2024-03-25T10:39:39;16.92;;;4.63;;
48329;SDS011;34138;51.262;6.818;2024-03-25T10:42:05;21.55;;;4.38;;
48329;SDS011;34138;51.262;6.818;2024-03-25T10:44:32;22.42;;;4.78;;
48329;SDS011;34138;51.262;6.818;2024-03-25T10:47:02;15.35;;;4.32;;
48329;SDS011;34138;51.262;6.818;2024-03-25T10:52:15;16.10;;;4.80;;
48329;SDS011;34138;51.262;6.818;2024-03-25T10:54:43;16.42;;;4.57;;
48329;SDS011;34138;51.262;6.818;2024-03-25T10:57:11;15.52;;;4.65;;
48329;SDS011;34138;51.262;6.818;2024-03-25T10:59:38;16.40;;;4.75;;
48329;SDS011;34138;51.262;6.818;2024-03-25T11:02:07;13.68;;;4.20;;
48329;SDS011;34138;51.262;6.818;2024-03-25T11:04:34;13.00;;;4.28;;
48329;SDS011;34138;51.262;6.818;2024-03-25T11:07:06;13.88;;;4.85;;
48329;SDS011;34138;51.262;6.818;2024-03-25T11:09:32;17.08;;;5.03;;
48329;SDS011;34138;51.262;6.818;2024-03-25T11:11:58;17.27;;;5.22;;
48329;SDS011;34138;51.262;6.818;2024-03-25T11:14:27;19.35;;;6.63;;
48329;SDS011;34138;51.262;6.818;2024-03-25T11:16:54;16.95;;;5.13;;
48329;SDS011;34138;51.262;6.818;2024-03-25T11:19:20;30.15;;;5.85;;
48329;SDS011;34138;51.262;6.818;2024-03-25T11:21:46;13.57;;;4.32;;
48329;SDS011;34138;51.262;6.818;2024-03-25T11:24:11;13.85;;;4.93;;
48329;SDS011;34138;51.262;6.818;2024-03-25T11:26:40;14.88;;;4.78;;
48329;SDS011;34138;51.262;6.818;2024-03-25T11:29:05;12.32;;;4.40;;
48329;SDS011;34138;51.262;6.818;2024-03-25T11:31:30;16.33;;;4.65;;
48329;SDS011;34138;51.262;6.818;2024-03-25T11:33:57;13.65;;;5.15;;
48329;SDS011;34138;51.262;6.818;2024-03-25T11:36:22;10.40;;;4.13;;
48329;SDS011;34138;51.262;6.818;2024-03-25T11:38:58;12.25;;;4.53;;
48329;SDS011;34138;51.262;6.818;2024-03-25T11:41:25;12.57;;;4.57;;
48329;SDS011;34138;51.262;6.818;2024-03-25T11:43:50;12.65;;;4.07;;
48329;SDS011;34138;51.262;6.818;2024-03-25T11:46:18;12.05;;;3.92;;
48329;SDS011;34138;51.262;6.818;2024-03-25T11:48:44;14.18;;;4.85;;
48329;SDS011;34138;51.262;6.818;2024-03-25T11:51:16;10.68;;;4.38;;
48329;SDS011;34138;51.262;6.818;2024-03-25T11:53:43;9.32;;;3.95;;
48329;SDS011;34138;51.262;6.818;2024-03-25T11:56:10;11.73;;;4.15;;
48329;SDS011;34138;51.262;6.818;2024-03-25T11:58:36;11.25;;;3.40;;
48329;SDS011;34138;51.262;6.818;2024-03-25T12:01:01;9.48;;;3.70;;
48329;SDS011;34138;51.262;6.818;2024-03-25T12:03:26;11.30;;;3.50;;
48329;SDS011;34138;51.262;6.818;2024-03-25T12:05:51;11.75;;;4.18;;
48329;SDS011;34138;51.262;6.818;2024-03-25T12:08:17;11.75;;;4.15;;
48329;SDS011;34138;51.262;6.818;2024-03-25T12:10:42;10.38;;;3.95;;
48329;SDS011;34138;51.262;6.818;2024-03-25T12:13:25;12.38;;;3.70;;
48329;SDS011;34138;51.262;6.818;2024-03-25T12:15:52;14.68;;;4.75;;
48329;SDS011;34138;51.262;6.818;2024-03-25T12:18:18;22.40;;;6.50;;
48329;SDS011;34138;51.262;6.818;2024-03-25T12:20:46;9.77;;;3.38;;
48329;SDS011;34138;51.262;6.818;2024-03-25T12:23:11;10.20;;;3.25;;
48329;SDS011;34138;51.262;6.818;2024-03-25T12:25:36;9.98;;;3.03;;
48329;SDS011;34138;51.262;6.818;2024-03-25T12:28:07;15.63;;;4.03;;
48329;SDS011;34138;51.262;6.818;2024-03-25T12:30:33;8.43;;;3.13;;
48329;SDS011;34138;51.262;6.818;2024-03-25T12:33:05;13.32;;;6.25;;
48329;SDS011;34138;51.262;6.818;2024-03-25T12:35:31;9.63;;;4.22;;
48329;SDS011;34138;51.262;6.818;2024-03-25T12:37:59;7.03;;;2.28;;
48329;SDS011;34138;51.262;6.818;2024-03-25T12:40:28;9.00;;;2.80;;
48329;SDS011;34138;51.262;6.818;2024-03-25T12:42:53;7.53;;;2.80;;
48329;SDS011;34138;51.262;6.818;2024-03-25T12:45:22;6.70;;;2.63;;
48329;SDS011;34138;51.262;6.818;2024-03-25T12:47:50;8.35;;;3.22;;
48329;SDS011;34138;51.262;6.818;2024-03-25T12:50:15;8.60;;;2.88;;
48329;SDS011;34138;51.262;6.818;2024-03-25T12:52:40;7.90;;;2.60;;
48329;SDS011;34138;51.262;6.818;2024-03-25T12:55:06;6.97;;;2.88;;
48329;SDS011;34138;51.262;6.818;2024-03-25T12:57:31;6.43;;;2.50;;
48329;SDS011;34138;51.262;6.818;2024-03-25T12:59:57;7.68;;;2.70;;
48329;SDS011;34138;51.262;6.818;2024-03-25T13:02:22;8.48;;;3.30;;
48329;SDS011;34138;51.262;6.818;2024-03-25T13:04:49;6.35;;;2.50;;
48329;SDS011;34138;51.262;6.818;2024-03-25T13:07:15;6.43;;;2.35;;
48329;SDS011;34138;51.262;6.818;2024-03-25T13:09:42;7.63;;;2.63;;
48329;SDS011;34138;51.262;6.818;2024-03-25T13:12:08;6.05;;;2.05;;
48329;SDS011;34138;51.262;6.818;2024-03-25T13:14:35;6.82;;;2.42;;
48329;SDS011;34138;51.262;6.818;2024-03-25T13:17:01;8.15;;;2.22;;
48329;SDS011;34138;51.262;6.818;2024-03-25T13:19:28;8.45;;;2.20;;
48329;SDS011;34138;51.262;6.818;2024-03-25T13:21:57;8.60;;;2.63;;
48329;SDS011;34138;51.262;6.818;2024-03-25T13:24:23;8.70;;;2.95;;
48329;SDS011;34138;51.262;6.818;2024-03-25T13:26:50;8.13;;;2.95;;
48329;SDS011;34138;51.262;6.818;2024-03-25T13:29:16;7.10;;;2.72;;
48329;SDS011;34138;51.262;6.818;2024-03-25T13:31:43;7.03;;;2.33;;
48329;SDS011;34138;51.262;6.818;2024-03-25T13:34:09;7.03;;;2.40;;
48329;SDS011;34138;51.262;6.818;2024-03-25T13:36:36;7.00;;;2.60;;
48329;SDS011;34138;51.262;6.818;2024-03-25T13:39:03;7.60;;;3.00;;
48329;SDS011;34138;51.262;6.818;2024-03-25T13:41:29;7.47;;;2.85;;
48329;SDS011;34138;51.262;6.818;2024-03-25T13:43:56;8.68;;;3.15;;
48329;SDS011;34138;51.262;6.818;2024-03-25T13:46:21;7.55;;;2.35;;
48329;SDS011;34138;51.262;6.818;2024-03-25T13:48:49;6.38;;;2.45;;
48329;SDS011;34138;51.262;6.818;2024-03-25T13:51:14;6.45;;;2.10;;
48329;SDS011;34138;51.262;6.818;2024-03-25T13:53:39;6.47;;;2.42;;
48329;SDS011;34138;51.262;6.818;2024-03-25T13:56:05;9.95;;;2.40;;
48329;SDS011;34138;51.262;6.818;2024-03-25T13:58:31;5.60;;;2.03;;
48329;SDS011;34138;51.262;6.818;2024-03-25T14:00:56;10.18;;;3.08;;
48329;SDS011;34138;51.262;6.818;2024-03-25T14:03:21;5.80;;;2.08;;
48329;SDS011;34138;51.262;6.818;2024-03-25T14:05:46;7.60;;;2.60;;
48329;SDS011;34138;51.262;6.818;2024-03-25T14:08:12;9.70;;;2.20;;
48329;SDS011;34138;51.262;6.818;2024-03-25T14:10:37;7.03;;;2.20;;
48329;SDS011;34138;51.262;6.818;2024-03-25T14:13:02;6.47;;;2.20;;
48329;SDS011;34138;51.262;6.818;2024-03-25T14:15:28;8.77;;;2.20;;
48329;SDS011;34138;51.262;6.818;2024-03-25T14:17:53;7.00;;;1.80;;
48329;SDS011;34138;51.262;6.818;2024-03-25T14:20:18;9.43;;;2.72;;
48329;SDS011;34138;51.262;6.818;2024-03-25T14:22:44;5.78;;;1.83;;
48329;SDS011;34138;51.262;6.818;2024-03-25T14:25:10;6.95;;;2.10;;
48329;SDS011;34138;51.262;6.818;2024-03-25T14:27:37;9.63;;;2.63;;
48329;SDS011;34138;51.262;6.818;2024-03-25T14:30:03;8.13;;;2.42;;
48329;SDS011;34138;51.262;6.818;2024-03-25T14:32:28;8.38;;;2.28;;
48329;SDS011;34138;51.262;6.818;2024-03-25T14:34:54;8.57;;;2.42;;
48329;SDS011;34138;51.262;6.818;2024-03-25T14:37:21;7.00;;;2.10;;